sensor_id;sensor_type;location;lat;lon;timestamp;temperature;humidity
34726;DHT22;20951;50.818;4.344;2024-02-23T00:00:42;6.30;99.90
34726;DHT22;20951;50.818;4.344;2024-02-23T00:03:07;6.30;99.90
34726;DHT22;20951;50.818;4.344;2024-02-23T00:05:34;6.30;99.90
34726;DHT22;20951;50.818;4.344;2024-02-23T00:07:59;6.30;99.90
34726;DHT22;20951;50.818;4.344;2024-02-23T00:10:25;6.40;99.90
34726;DHT22;20951;50.818;4.344;2024-02-23T00:12:51;6.40;99.90
34726;DHT22;20951;50.818;4.344;2024-02-23T00:15:17;6.50;99.90
34726;DHT22;20951;50.818;4.344;2024-02-23T00:17:43;6.50;99.90
34726;DHT22;20951;50.818;4.344;2024-02-23T00:20:11;6.40;99.90
34726;DHT22;20951;50.818;4.344;2024-02-23T00:22:37;6.40;99.90
34726;DHT22;20951;50.818;4.344;2024-02-23T00:25:04;6.40;99.90
34726;DHT22;20951;50.818;4.344;2024-02-23T00:27:30;6.20;99.90
34726;DHT22;20951;50.818;4.344;2024-02-23T00:29:56;6.20;99.90
34726;DHT22;20951;50.818;4.344;2024-02-23T00:32:21;6.20;99.90
34726;DHT22;20951;50.818;4.344;2024-02-23T00:34:47;6.20;99.90
34726;DHT22;20951;50.818;4.344;2024-02-23T00:37:13;6.20;99.90
34726;DHT22;20951;50.818;4.344;2024-02-23T00:39:39;6.20;99.90
34726;DHT22;20951;50.818;4.344;2024-02-23T00:42:05;6.10;99.90
34726;DHT22;20951;50.818;4.344;2024-02-23T00:44:31;6.20;99.90
34726;DHT22;20951;50.818;4.344;2024-02-23T00:46:57;6.20;99.90
34726;DHT22;20951;50.818;4.344;2024-02-23T00:49:27;6.10;99.90
34726;DHT22;20951;50.818;4.344;2024-02-23T00:51:53;6.20;99.90
34726;DHT22;20951;50.818;4.344;2024-02-23T00:54:19;6.30;99.90
34726;DHT22;20951;50.818;4.344;2024-02-23T00:56:45;6.20;99.90
34726;DHT22;20951;50.818;4.344;2024-02-23T00:59:11;6.10;99.90
34726;DHT22;20951;50.818;4.344;2024-02-23T01:01:37;5.90;99.90
34726;DHT22;20951;50.818;4.344;2024-02-23T01:04:03;6.00;99.90
34726;DHT22;20951;50.818;4.344;2024-02-23T01:06:29;5.90;99.90
34726;DHT22;20951;50.818;4.344;2024-02-23T01:08:55;6.00;99.90
34726;DHT22;20951;50.818;4.344;2024-02-23T01:11:20;5.90;99.90
34726;DHT22;20951;50.818;4.344;2024-02-23T01:13:46;5.80;99.90
34726;DHT22;20951;50.818;4.344;2024-02-23T01:16:12;5.80;99.90
34726;DHT22;20951;50.818;4.344;2024-02-23T01:18:38;5.80;99.90
34726;DHT22;20951;50.818;4.344;2024-02-23T01:21:04;5.90;99.90
34726;DHT22;20951;50.818;4.344;2024-02-23T01:23:30;5.90;99.90
34726;DHT22;20951;50.818;4.344;2024-02-23T01:25:55;5.70;99.90
34726;DHT22;20951;50.818;4.344;2024-02-23T01:28:22;5.90;99.90
34726;DHT22;20951;50.818;4.344;2024-02-23T01:30:48;5.90;99.90
34726;DHT22;20951;50.818;4.344;2024-02-23T01:33:13;5.80;99.90
34726;DHT22;20951;50.818;4.344;2024-02-23T01:35:39;5.80;99.90
34726;DHT22;20951;50.818;4.344;2024-02-23T01:38:05;5.80;99.90
34726;DHT22;20951;50.818;4.344;2024-02-23T01:40:31;5.70;99.90
34726;DHT22;20951;50.818;4.344;2024-02-23T01:43:04;5.70;99.90
34726;DHT22;20951;50.818;4.344;2024-02-23T01:45:30;5.70;99.90
34726;DHT22;20951;50.818;4.344;2024-02-23T01:47:57;5.70;99.90
34726;DHT22;20951;50.818;4.344;2024-02-23T01:50:24;5.80;99.90
34726;DHT22;20951;50.818;4.344;2024-02-23T01:52:50;5.80;99.90
34726;DHT22;20951;50.818;4.344;2024-02-23T01:55:19;5.90;99.90
34726;DHT22;20951;50.818;4.344;2024-02-23T01:57:46;5.90;99.90
34726;DHT22;20951;50.818;4.344;2024-02-23T02:00:16;5.90;99.90
34726;DHT22;20951;50.818;4.344;2024-02-23T02:02:47;6.00;99.90
34726;DHT22;20951;50.818;4.344;2024-02-23T02:05:14;6.10;99.90
34726;DHT22;20951;50.818;4.344;2024-02-23T02:07:42;6.10;99.90
34726;DHT22;20951;50.818;4.344;2024-02-23T02:10:09;6.10;99.90
34726;DHT22;20951;50.818;4.344;2024-02-23T02:12:35;6.10;99.90
34726;DHT22;20951;50.818;4.344;2024-02-23T02:15:02;6.10;99.90
34726;DHT22;20951;50.818;4.344;2024-02-23T02:17:28;6.00;99.90
34726;DHT22;20951;50.818;4.344;2024-02-23T02:19:54;6.10;99.90
34726;DHT22;20951;50.818;4.344;2024-02-23T02:22:20;6.10;99.90
34726;DHT22;20951;50.818;4.344;2024-02-23T02:24:46;6.10;99.90
34726;DHT22;20951;50.818;4.344;2024-02-23T02:27:14;6.00;99.90
34726;DHT22;20951;50.818;4.344;2024-02-23T02:29:40;6.00;99.90
34726;DHT22;20951;50.818;4.344;2024-02-23T02:32:06;5.90;99.90
34726;DHT22;20951;50.818;4.344;2024-02-23T02:34:32;6.10;99.90
34726;DHT22;20951;50.818;4.344;2024-02-23T02:36:58;6.20;99.90
34726;DHT22;20951;50.818;4.344;2024-02-23T02:39:26;6.30;99.90
34726;DHT22;20951;50.818;4.344;2024-02-23T02:41:52;6.10;99.90
34726;DHT22;20951;50.818;4.344;2024-02-23T02:44:18;6.10;99.90
34726;DHT22;20951;50.818;4.344;2024-02-23T02:46:44;6.10;99.90
34726;DHT22;20951;50.818;4.344;2024-02-23T02:49:11;6.20;99.90
34726;DHT22;20951;50.818;4.344;2024-02-23T02:51:37;6.30;99.90
34726;DHT22;20951;50.818;4.344;2024-02-23T02:54:04;6.30;99.90
34726;DHT22;20951;50.818;4.344;2024-02-23T02:56:30;6.20;99.90
34726;DHT22;20951;50.818;4.344;2024-02-23T02:58:56;6.30;99.90
34726;DHT22;20951;50.818;4.344;2024-02-23T03:01:22;6.30;99.90
34726;DHT22;20951;50.818;4.344;2024-02-23T03:03:47;6.40;99.90
34726;DHT22;20951;50.818;4.344;2024-02-23T03:06:14;6.30;99.90
34726;DHT22;20951;50.818;4.344;2024-02-23T03:08:43;6.30;99.90
34726;DHT22;20951;50.818;4.344;2024-02-23T03:11:09;6.30;99.90
34726;DHT22;20951;50.818;4.344;2024-02-23T03:13:35;6.30;99.90
34726;DHT22;20951;50.818;4.344;2024-02-23T03:16:01;6.30;99.90
34726;DHT22;20951;50.818;4.344;2024-02-23T03:18:27;6.30;99.90
34726;DHT22;20951;50.818;4.344;2024-02-23T03:20:53;6.40;99.90
34726;DHT22;20951;50.818;4.344;2024-02-23T03:23:20;6.50;99.90
34726;DHT22;20951;50.818;4.344;2024-02-23T03:25:46;6.30;99.90
34726;DHT22;20951;50.818;4.344;2024-02-23T03:28:12;6.20;99.90
34726;DHT22;20951;50.818;4.344;2024-02-23T03:30:38;6.20;99.90
34726;DHT22;20951;50.818;4.344;2024-02-23T03:33:04;6.20;99.90
34726;DHT22;20951;50.818;4.344;2024-02-23T03:35:30;6.10;99.90
34726;DHT22;20951;50.818;4.344;2024-02-23T03:37:55;6.20;99.90
34726;DHT22;20951;50.818;4.344;2024-02-23T03:40:21;6.20;99.90
34726;DHT22;20951;50.818;4.344;2024-02-23T03:42:47;6.20;99.90
34726;DHT22;20951;50.818;4.344;2024-02-23T03:45:13;6.30;99.90
34726;DHT22;20951;50.818;4.344;2024-02-23T03:47:38;6.20;99.90
34726;DHT22;20951;50.818;4.344;2024-02-23T03:50:06;6.30;99.90
34726;DHT22;20951;50.818;4.344;2024-02-23T03:52:32;6.40;99.90
34726;DHT22;20951;50.818;4.344;2024-02-23T03:54:58;6.50;99.90
34726;DHT22;20951;50.818;4.344;2024-02-23T03:57:24;6.40;99.90
34726;DHT22;20951;50.818;4.344;2024-02-23T03:59:54;6.40;99.90
34726;DHT22;20951;50.818;4.344;2024-02-23T04:02:20;6.40;99.90
34726;DHT22;20951;50.818;4.344;2024-02-23T04:04:46;6.30;99.90
34726;DHT22;20951;50.818;4.344;2024-02-23T04:07:12;6.40;99.90
34726;DHT22;20951;50.818;4.344;2024-02-23T04:09:38;6.40;99.90
34726;DHT22;20951;50.818;4.344;2024-02-23T04:12:04;6.40;99.90
34726;DHT22;20951;50.818;4.344;2024-02-23T04:14:32;6.40;99.90
34726;DHT22;20951;50.818;4.344;2024-02-23T04:17:04;6.40;99.90
34726;DHT22;20951;50.818;4.344;2024-02-23T04:19:30;6.40;99.90
34726;DHT22;20951;50.818;4.344;2024-02-23T04:21:56;6.40;99.90
34726;DHT22;20951;50.818;4.344;2024-02-23T04:24:22;6.40;99.90
34726;DHT22;20951;50.818;4.344;2024-02-23T04:26:47;6.50;99.90
34726;DHT22;20951;50.818;4.344;2024-02-23T04:29:13;6.50;99.90
34726;DHT22;20951;50.818;4.344;2024-02-23T04:31:39;6.40;99.90
34726;DHT22;20951;50.818;4.344;2024-02-23T04:34:05;6.50;99.90
34726;DHT22;20951;50.818;4.344;2024-02-23T04:36:31;6.50;99.90
34726;DHT22;20951;50.818;4.344;2024-02-23T04:38:56;6.40;99.90
34726;DHT22;20951;50.818;4.344;2024-02-23T04:41:22;6.40;99.90
34726;DHT22;20951;50.818;4.344;2024-02-23T04:43:48;6.40;99.90
34726;DHT22;20951;50.818;4.344;2024-02-23T04:46:14;6.50;99.90
34726;DHT22;20951;50.818;4.344;2024-02-23T04:48:40;6.50;99.90
34726;DHT22;20951;50.818;4.344;2024-02-23T04:51:07;6.40;99.90
34726;DHT22;20951;50.818;4.344;2024-02-23T04:53:38;6.40;99.90
34726;DHT22;20951;50.818;4.344;2024-02-23T04:56:04;6.30;99.90
34726;DHT22;20951;50.818;4.344;2024-02-23T04:58:30;6.30;99.90
34726;DHT22;20951;50.818;4.344;2024-02-23T05:00:56;6.30;99.90
34726;DHT22;20951;50.818;4.344;2024-02-23T05:03:22;6.40;99.90
34726;DHT22;20951;50.818;4.344;2024-02-23T05:05:48;6.30;99.90
34726;DHT22;20951;50.818;4.344;2024-02-23T05:08:22;6.40;99.90
34726;DHT22;20951;50.818;4.344;2024-02-23T05:10:50;6.40;99.90
34726;DHT22;20951;50.818;4.344;2024-02-23T05:13:16;6.30;99.90
34726;DHT22;20951;50.818;4.344;2024-02-23T05:15:42;6.40;99.90
34726;DHT22;20951;50.818;4.344;2024-02-23T05:18:08;6.30;99.90
34726;DHT22;20951;50.818;4.344;2024-02-23T05:20:34;6.20;99.90
34726;DHT22;20951;50.818;4.344;2024-02-23T05:23:00;6.20;99.90
34726;DHT22;20951;50.818;4.344;2024-02-23T05:25:26;6.20;99.90
34726;DHT22;20951;50.818;4.344;2024-02-23T05:27:52;6.20;99.90
34726;DHT22;20951;50.818;4.344;2024-02-23T05:30:18;6.20;99.90
34726;DHT22;20951;50.818;4.344;2024-02-23T05:32:44;6.20;99.90
34726;DHT22;20951;50.818;4.344;2024-02-23T05:35:09;6.20;99.90
34726;DHT22;20951;50.818;4.344;2024-02-23T05:37:36;6.20;99.90
34726;DHT22;20951;50.818;4.344;2024-02-23T05:40:03;6.10;99.90
34726;DHT22;20951;50.818;4.344;2024-02-23T05:42:36;6.10;99.90
34726;DHT22;20951;50.818;4.344;2024-02-23T05:45:01;6.10;99.90
34726;DHT22;20951;50.818;4.344;2024-02-23T05:47:30;6.20;99.90
34726;DHT22;20951;50.818;4.344;2024-02-23T05:49:56;6.30;99.90
34726;DHT22;20951;50.818;4.344;2024-02-23T05:52:23;6.20;99.90
34726;DHT22;20951;50.818;4.344;2024-02-23T05:54:49;6.10;99.90
34726;DHT22;20951;50.818;4.344;2024-02-23T05:57:15;6.10;99.90
34726;DHT22;20951;50.818;4.344;2024-02-23T05:59:40;6.10;99.90
34726;DHT22;20951;50.818;4.344;2024-02-23T06:02:06;6.10;99.90
34726;DHT22;20951;50.818;4.344;2024-02-23T06:04:32;6.10;99.90
34726;DHT22;20951;50.818;4.344;2024-02-23T06:06:57;6.20;99.90
34726;DHT22;20951;50.818;4.344;2024-02-23T06:09:23;6.20;99.90
34726;DHT22;20951;50.818;4.344;2024-02-23T06:11:49;6.20;99.90
34726;DHT22;20951;50.818;4.344;2024-02-23T06:14:15;6.10;99.90
34726;DHT22;20951;50.818;4.344;2024-02-23T06:16:42;6.10;99.90
34726;DHT22;20951;50.818;4.344;2024-02-23T06:19:09;6.00;99.90
34726;DHT22;20951;50.818;4.344;2024-02-23T06:21:34;6.00;99.90
34726;DHT22;20951;50.818;4.344;2024-02-23T06:24:00;6.10;99.90
34726;DHT22;20951;50.818;4.344;2024-02-23T06:26:26;6.20;99.90
34726;DHT22;20951;50.818;4.344;2024-02-23T06:28:52;6.20;99.90
34726;DHT22;20951;50.818;4.344;2024-02-23T06:31:17;6.10;99.90
34726;DHT22;20951;50.818;4.344;2024-02-23T06:33:43;6.20;99.90
34726;DHT22;20951;50.818;4.344;2024-02-23T06:36:09;6.10;99.90
34726;DHT22;20951;50.818;4.344;2024-02-23T06:38:35;6.20;99.90
34726;DHT22;20951;50.818;4.344;2024-02-23T06:41:01;6.20;99.90
34726;DHT22;20951;50.818;4.344;2024-02-23T06:43:27;6.20;99.90
34726;DHT22;20951;50.818;4.344;2024-02-23T06:45:53;6.30;99.90
34726;DHT22;20951;50.818;4.344;2024-02-23T06:48:18;6.20;99.90
34726;DHT22;20951;50.818;4.344;2024-02-23T06:50:45;6.30;99.90
34726;DHT22;20951;50.818;4.344;2024-02-23T06:53:11;6.30;99.90
34726;DHT22;20951;50.818;4.344;2024-02-23T06:55:36;6.30;99.90
34726;DHT22;20951;50.818;4.344;2024-02-23T06:58:03;6.30;99.90
34726;DHT22;20951;50.818;4.344;2024-02-23T07:00:30;6.40;99.90
34726;DHT22;20951;50.818;4.344;2024-02-23T07:02:56;6.30;99.90
34726;DHT22;20951;50.818;4.344;2024-02-23T07:05:24;6.30;99.90
34726;DHT22;20951;50.818;4.344;2024-02-23T07:07:51;6.40;99.90
34726;DHT22;20951;50.818;4.344;2024-02-23T07:10:17;6.40;99.90
34726;DHT22;20951;50.818;4.344;2024-02-23T07:12:43;6.40;99.90
34726;DHT22;20951;50.818;4.344;2024-02-23T07:15:10;6.40;99.90
34726;DHT22;20951;50.818;4.344;2024-02-23T07:17:35;6.50;99.90
34726;DHT22;20951;50.818;4.344;2024-02-23T07:20:01;6.50;99.90
34726;DHT22;20951;50.818;4.344;2024-02-23T07:22:32;6.50;99.90
34726;DHT22;20951;50.818;4.344;2024-02-23T07:24:58;6.50;99.90
34726;DHT22;20951;50.818;4.344;2024-02-23T07:27:23;6.50;99.90
34726;DHT22;20951;50.818;4.344;2024-02-23T07:29:49;6.60;99.90
34726;DHT22;20951;50.818;4.344;2024-02-23T07:32:15;6.50;99.90
34726;DHT22;20951;50.818;4.344;2024-02-23T07:34:41;6.60;99.90
34726;DHT22;20951;50.818;4.344;2024-02-23T07:37:06;6.60;99.90
34726;DHT22;20951;50.818;4.344;2024-02-23T07:39:32;6.60;99.90
34726;DHT22;20951;50.818;4.344;2024-02-23T07:41:58;6.60;99.90
34726;DHT22;20951;50.818;4.344;2024-02-23T07:44:24;6.70;99.90
34726;DHT22;20951;50.818;4.344;2024-02-23T07:46:50;6.80;99.90
34726;DHT22;20951;50.818;4.344;2024-02-23T07:49:19;7.00;99.90
34726;DHT22;20951;50.818;4.344;2024-02-23T07:51:45;7.00;99.90
34726;DHT22;20951;50.818;4.344;2024-02-23T07:54:11;7.00;99.90
34726;DHT22;20951;50.818;4.344;2024-02-23T07:56:36;7.00;99.90
34726;DHT22;20951;50.818;4.344;2024-02-23T07:59:02;7.00;99.90
34726;DHT22;20951;50.818;4.344;2024-02-23T08:01:28;6.90;99.90
34726;DHT22;20951;50.818;4.344;2024-02-23T08:03:55;6.90;99.90
34726;DHT22;20951;50.818;4.344;2024-02-23T08:06:21;6.80;99.90
34726;DHT22;20951;50.818;4.344;2024-02-23T08:08:47;6.80;99.90
34726;DHT22;20951;50.818;4.344;2024-02-23T08:11:12;6.60;99.90
34726;DHT22;20951;50.818;4.344;2024-02-23T08:13:39;6.50;99.90
34726;DHT22;20951;50.818;4.344;2024-02-23T08:16:06;6.40;99.90
34726;DHT22;20951;50.818;4.344;2024-02-23T08:18:32;6.20;99.90
34726;DHT22;20951;50.818;4.344;2024-02-23T08:20:58;6.10;99.90
34726;DHT22;20951;50.818;4.344;2024-02-23T08:23:24;6.10;99.90
34726;DHT22;20951;50.818;4.344;2024-02-23T08:25:50;6.10;99.90
34726;DHT22;20951;50.818;4.344;2024-02-23T08:28:16;6.10;99.90
34726;DHT22;20951;50.818;4.344;2024-02-23T08:30:42;6.20;99.90
34726;DHT22;20951;50.818;4.344;2024-02-23T08:33:08;6.10;99.90
34726;DHT22;20951;50.818;4.344;2024-02-23T08:35:35;6.00;99.90
34726;DHT22;20951;50.818;4.344;2024-02-23T08:38:01;6.00;99.90
34726;DHT22;20951;50.818;4.344;2024-02-23T08:40:27;6.00;99.90
34726;DHT22;20951;50.818;4.344;2024-02-23T08:42:53;6.00;99.90
34726;DHT22;20951;50.818;4.344;2024-02-23T08:45:18;6.00;99.90
34726;DHT22;20951;50.818;4.344;2024-02-23T08:47:44;5.90;99.90
34726;DHT22;20951;50.818;4.344;2024-02-23T08:50:10;5.90;99.90
34726;DHT22;20951;50.818;4.344;2024-02-23T08:52:36;5.90;99.90
34726;DHT22;20951;50.818;4.344;2024-02-23T08:55:02;5.90;99.90
34726;DHT22;20951;50.818;4.344;2024-02-23T08:57:28;5.90;99.90
34726;DHT22;20951;50.818;4.344;2024-02-23T08:59:53;5.80;99.90
34726;DHT22;20951;50.818;4.344;2024-02-23T09:02:20;5.80;99.90
34726;DHT22;20951;50.818;4.344;2024-02-23T09:04:46;5.80;99.90
34726;DHT22;20951;50.818;4.344;2024-02-23T09:07:12;5.80;99.90
34726;DHT22;20951;50.818;4.344;2024-02-23T09:09:38;5.80;99.90
34726;DHT22;20951;50.818;4.344;2024-02-23T09:12:04;5.80;99.90
34726;DHT22;20951;50.818;4.344;2024-02-23T09:14:32;5.90;99.90
34726;DHT22;20951;50.818;4.344;2024-02-23T09:16:59;5.80;99.90
34726;DHT22;20951;50.818;4.344;2024-02-23T09:19:24;5.80;99.90
34726;DHT22;20951;50.818;4.344;2024-02-23T09:21:50;5.90;99.90
34726;DHT22;20951;50.818;4.344;2024-02-23T09:24:16;5.90;99.90
34726;DHT22;20951;50.818;4.344;2024-02-23T09:26:45;6.00;99.90
34726;DHT22;20951;50.818;4.344;2024-02-23T09:29:11;6.00;99.90
34726;DHT22;20951;50.818;4.344;2024-02-23T09:31:37;6.10;99.90
34726;DHT22;20951;50.818;4.344;2024-02-23T09:34:03;6.10;99.90
34726;DHT22;20951;50.818;4.344;2024-02-23T09:36:29;6.10;99.90
34726;DHT22;20951;50.818;4.344;2024-02-23T09:38:56;6.30;99.90
34726;DHT22;20951;50.818;4.344;2024-02-23T09:41:23;6.40;99.90
34726;DHT22;20951;50.818;4.344;2024-02-23T09:43:49;6.60;99.90
34726;DHT22;20951;50.818;4.344;2024-02-23T09:46:17;6.70;99.90
34726;DHT22;20951;50.818;4.344;2024-02-23T09:48:43;6.70;99.90
34726;DHT22;20951;50.818;4.344;2024-02-23T09:51:10;6.70;99.90
34726;DHT22;20951;50.818;4.344;2024-02-23T09:53:37;6.80;99.90
34726;DHT22;20951;50.818;4.344;2024-02-23T09:56:04;6.80;99.90
34726;DHT22;20951;50.818;4.344;2024-02-23T09:58:32;6.80;99.90
34726;DHT22;20951;50.818;4.344;2024-02-23T10:00:59;6.80;99.90
34726;DHT22;20951;50.818;4.344;2024-02-23T10:03:27;6.90;99.90
34726;DHT22;20951;50.818;4.344;2024-02-23T10:05:54;6.90;99.90
34726;DHT22;20951;50.818;4.344;2024-02-23T10:08:20;6.80;99.90
34726;DHT22;20951;50.818;4.344;2024-02-23T10:10:46;6.80;99.90
34726;DHT22;20951;50.818;4.344;2024-02-23T10:13:27;6.80;99.90
34726;DHT22;20951;50.818;4.344;2024-02-23T10:15:54;6.80;99.90
34726;DHT22;20951;50.818;4.344;2024-02-23T10:18:20;6.90;99.90
34726;DHT22;20951;50.818;4.344;2024-02-23T10:20:47;7.00;99.90
34726;DHT22;20951;50.818;4.344;2024-02-23T10:23:13;7.20;99.90
34726;DHT22;20951;50.818;4.344;2024-02-23T10:25:39;7.50;99.90
34726;DHT22;20951;50.818;4.344;2024-02-23T10:28:06;7.40;99.90
34726;DHT22;20951;50.818;4.344;2024-02-23T10:30:32;7.30;99.90
34726;DHT22;20951;50.818;4.344;2024-02-23T10:32:59;7.40;99.90
34726;DHT22;20951;50.818;4.344;2024-02-23T10:35:25;7.50;99.90
34726;DHT22;20951;50.818;4.344;2024-02-23T10:37:53;7.40;99.90
34726;DHT22;20951;50.818;4.344;2024-02-23T10:40:21;7.50;99.90
34726;DHT22;20951;50.818;4.344;2024-02-23T10:42:56;7.60;99.90
34726;DHT22;20951;50.818;4.344;2024-02-23T10:45:22;7.80;99.90
34726;DHT22;20951;50.818;4.344;2024-02-23T10:47:48;7.70;99.90
34726;DHT22;20951;50.818;4.344;2024-02-23T10:50:17;7.70;99.90
34726;DHT22;20951;50.818;4.344;2024-02-23T10:52:45;7.70;99.90
34726;DHT22;20951;50.818;4.344;2024-02-23T10:55:11;7.70;99.90
34726;DHT22;20951;50.818;4.344;2024-02-23T10:57:37;7.60;99.90
34726;DHT22;20951;50.818;4.344;2024-02-23T11:00:05;7.80;99.90
34726;DHT22;20951;50.818;4.344;2024-02-23T11:02:55;7.80;99.90
34726;DHT22;20951;50.818;4.344;2024-02-23T11:05:23;8.00;99.90
34726;DHT22;20951;50.818;4.344;2024-02-23T11:07:49;7.80;99.90
34726;DHT22;20951;50.818;4.344;2024-02-23T11:10:16;7.80;99.90
34726;DHT22;20951;50.818;4.344;2024-02-23T11:12:43;7.90;99.90
34726;DHT22;20951;50.818;4.344;2024-02-23T11:15:09;7.90;99.90
34726;DHT22;20951;50.818;4.344;2024-02-23T11:17:51;7.90;99.90
34726;DHT22;20951;50.818;4.344;2024-02-23T11:20:20;7.90;99.90
34726;DHT22;20951;50.818;4.344;2024-02-23T11:22:52;7.90;99.90
34726;DHT22;20951;50.818;4.344;2024-02-23T11:25:19;8.00;99.90
34726;DHT22;20951;50.818;4.344;2024-02-23T11:27:49;8.00;99.90
34726;DHT22;20951;50.818;4.344;2024-02-23T11:30:17;8.10;99.90
34726;DHT22;20951;50.818;4.344;2024-02-23T11:32:44;8.10;99.90
34726;DHT22;20951;50.818;4.344;2024-02-23T11:35:13;8.10;99.90
34726;DHT22;20951;50.818;4.344;2024-02-23T11:37:55;8.20;99.90
34726;DHT22;20951;50.818;4.344;2024-02-23T11:40:26;8.50;99.90
34726;DHT22;20951;50.818;4.344;2024-02-23T11:42:54;8.60;99.90
34726;DHT22;20951;50.818;4.344;2024-02-23T11:45:19;8.60;99.90
34726;DHT22;20951;50.818;4.344;2024-02-23T11:47:45;8.60;99.90
34726;DHT22;20951;50.818;4.344;2024-02-23T11:50:11;8.40;99.90
34726;DHT22;20951;50.818;4.344;2024-02-23T11:52:38;8.40;99.90
34726;DHT22;20951;50.818;4.344;2024-02-23T11:55:04;8.50;99.90
34726;DHT22;20951;50.818;4.344;2024-02-23T11:57:34;8.40;99.90
34726;DHT22;20951;50.818;4.344;2024-02-23T12:00:04;8.20;99.90
34726;DHT22;20951;50.818;4.344;2024-02-23T12:02:34;8.50;99.90
34726;DHT22;20951;50.818;4.344;2024-02-23T12:05:00;8.70;99.90
34726;DHT22;20951;50.818;4.344;2024-02-23T12:07:29;9.10;99.90
34726;DHT22;20951;50.818;4.344;2024-02-23T12:09:56;9.40;99.90
34726;DHT22;20951;50.818;4.344;2024-02-23T12:12:24;9.40;99.90
34726;DHT22;20951;50.818;4.344;2024-02-23T12:14:50;9.70;99.90
34726;DHT22;20951;50.818;4.344;2024-02-23T12:17:19;9.80;99.90
34726;DHT22;20951;50.818;4.344;2024-02-23T12:19:45;9.50;99.90
34726;DHT22;20951;50.818;4.344;2024-02-23T12:22:11;9.50;99.90
34726;DHT22;20951;50.818;4.344;2024-02-23T12:24:41;9.80;99.90
34726;DHT22;20951;50.818;4.344;2024-02-23T12:27:07;9.60;99.90
34726;DHT22;20951;50.818;4.344;2024-02-23T12:29:33;9.40;99.90
34726;DHT22;20951;50.818;4.344;2024-02-23T12:32:07;9.30;99.90
34726;DHT22;20951;50.818;4.344;2024-02-23T12:34:34;9.10;99.90
34726;DHT22;20951;50.818;4.344;2024-02-23T12:37:02;9.10;99.90
34726;DHT22;20951;50.818;4.344;2024-02-23T12:39:29;9.40;99.90
34726;DHT22;20951;50.818;4.344;2024-02-23T12:41:55;10.00;99.90
34726;DHT22;20951;50.818;4.344;2024-02-23T12:44:22;10.30;99.90
34726;DHT22;20951;50.818;4.344;2024-02-23T12:46:48;10.60;99.90
34726;DHT22;20951;50.818;4.344;2024-02-23T12:49:14;10.30;99.90
34726;DHT22;20951;50.818;4.344;2024-02-23T12:51:41;10.20;99.90
34726;DHT22;20951;50.818;4.344;2024-02-23T12:54:07;10.00;99.90
34726;DHT22;20951;50.818;4.344;2024-02-23T12:56:33;10.20;99.90
34726;DHT22;20951;50.818;4.344;2024-02-23T12:58:59;10.50;99.90
34726;DHT22;20951;50.818;4.344;2024-02-23T13:01:24;10.70;99.90
34726;DHT22;20951;50.818;4.344;2024-02-23T13:03:50;10.40;99.90
34726;DHT22;20951;50.818;4.344;2024-02-23T13:06:16;10.20;99.90
34726;DHT22;20951;50.818;4.344;2024-02-23T13:08:44;10.00;99.90
34726;DHT22;20951;50.818;4.344;2024-02-23T13:11:10;9.80;99.90
34726;DHT22;20951;50.818;4.344;2024-02-23T13:13:36;9.70;99.90
34726;DHT22;20951;50.818;4.344;2024-02-23T13:16:02;9.40;99.90
34726;DHT22;20951;50.818;4.344;2024-02-23T13:18:27;9.60;99.90
34726;DHT22;20951;50.818;4.344;2024-02-23T13:20:53;9.50;99.90
34726;DHT22;20951;50.818;4.344;2024-02-23T13:23:19;9.60;99.90
34726;DHT22;20951;50.818;4.344;2024-02-23T13:25:45;9.60;99.90
34726;DHT22;20951;50.818;4.344;2024-02-23T13:28:11;9.50;99.90
34726;DHT22;20951;50.818;4.344;2024-02-23T13:30:37;9.60;99.90
34726;DHT22;20951;50.818;4.344;2024-02-23T13:33:04;9.50;99.90
34726;DHT22;20951;50.818;4.344;2024-02-23T13:35:31;9.40;99.90
34726;DHT22;20951;50.818;4.344;2024-02-23T13:37:57;9.40;99.90
34726;DHT22;20951;50.818;4.344;2024-02-23T13:40:23;9.60;99.90
34726;DHT22;20951;50.818;4.344;2024-02-23T13:42:49;9.60;99.90
34726;DHT22;20951;50.818;4.344;2024-02-23T13:45:19;9.50;99.90
34726;DHT22;20951;50.818;4.344;2024-02-23T13:48:02;9.50;99.90
34726;DHT22;20951;50.818;4.344;2024-02-23T13:50:28;9.40;99.90
34726;DHT22;20951;50.818;4.344;2024-02-23T13:52:55;10.00;99.90
34726;DHT22;20951;50.818;4.344;2024-02-23T13:55:21;10.70;99.90
34726;DHT22;20951;50.818;4.344;2024-02-23T13:57:47;11.80;99.90
34726;DHT22;20951;50.818;4.344;2024-02-23T14:00:15;12.20;99.90
34726;DHT22;20951;50.818;4.344;2024-02-23T14:02:41;11.70;99.90
34726;DHT22;20951;50.818;4.344;2024-02-23T14:05:07;12.00;99.90
34726;DHT22;20951;50.818;4.344;2024-02-23T14:07:33;12.50;99.90
34726;DHT22;20951;50.818;4.344;2024-02-23T14:09:59;12.20;99.90
34726;DHT22;20951;50.818;4.344;2024-02-23T14:12:25;11.40;99.90
34726;DHT22;20951;50.818;4.344;2024-02-23T14:14:51;10.90;99.90
34726;DHT22;20951;50.818;4.344;2024-02-23T14:17:17;10.80;99.90
34726;DHT22;20951;50.818;4.344;2024-02-23T14:19:43;10.80;99.90
34726;DHT22;20951;50.818;4.344;2024-02-23T14:22:08;10.60;99.90
34726;DHT22;20951;50.818;4.344;2024-02-23T14:24:34;10.80;99.90
34726;DHT22;20951;50.818;4.344;2024-02-23T14:27:00;10.80;99.90
34726;DHT22;20951;50.818;4.344;2024-02-23T14:29:26;10.80;99.90
34726;DHT22;20951;50.818;4.344;2024-02-23T14:31:52;10.60;99.90
34726;DHT22;20951;50.818;4.344;2024-02-23T14:34:18;10.40;99.90
34726;DHT22;20951;50.818;4.344;2024-02-23T14:36:45;10.10;99.90
34726;DHT22;20951;50.818;4.344;2024-02-23T14:39:11;10.10;99.90
34726;DHT22;20951;50.818;4.344;2024-02-23T14:41:39;10.00;99.90
34726;DHT22;20951;50.818;4.344;2024-02-23T14:44:04;9.90;99.90
34726;DHT22;20951;50.818;4.344;2024-02-23T14:46:30;10.00;99.90
34726;DHT22;20951;50.818;4.344;2024-02-23T14:48:56;10.30;99.90
34726;DHT22;20951;50.818;4.344;2024-02-23T14:51:22;10.50;99.90
34726;DHT22;20951;50.818;4.344;2024-02-23T14:53:48;10.20;99.90
34726;DHT22;20951;50.818;4.344;2024-02-23T14:56:13;10.20;99.90
34726;DHT22;20951;50.818;4.344;2024-02-23T14:58:39;10.10;99.90
34726;DHT22;20951;50.818;4.344;2024-02-23T15:01:06;10.30;99.90
34726;DHT22;20951;50.818;4.344;2024-02-23T15:03:33;10.30;99.90
34726;DHT22;20951;50.818;4.344;2024-02-23T15:05:59;10.40;99.90
34726;DHT22;20951;50.818;4.344;2024-02-23T15:08:27;10.40;99.90
34726;DHT22;20951;50.818;4.344;2024-02-23T15:10:52;10.30;99.90
34726;DHT22;20951;50.818;4.344;2024-02-23T15:13:19;10.40;99.90
34726;DHT22;20951;50.818;4.344;2024-02-23T15:15:45;10.50;99.90
34726;DHT22;20951;50.818;4.344;2024-02-23T15:18:11;10.50;99.90
34726;DHT22;20951;50.818;4.344;2024-02-23T15:20:37;10.50;99.90
34726;DHT22;20951;50.818;4.344;2024-02-23T15:23:03;10.10;99.90
34726;DHT22;20951;50.818;4.344;2024-02-23T15:25:29;10.00;99.90
34726;DHT22;20951;50.818;4.344;2024-02-23T15:27:54;10.00;99.90
34726;DHT22;20951;50.818;4.344;2024-02-23T15:30:26;9.80;99.90
34726;DHT22;20951;50.818;4.344;2024-02-23T15:32:52;9.80;99.90
34726;DHT22;20951;50.818;4.344;2024-02-23T15:35:18;9.80;99.90
34726;DHT22;20951;50.818;4.344;2024-02-23T15:37:44;9.80;99.90
34726;DHT22;20951;50.818;4.344;2024-02-23T15:40:11;9.60;99.90